Portada
METAR-TAF:

METAR-TAF

Aeropuertos :

Viru-Viru, Bolivia

Aeropuerto Internacional Viru Viru

latitud: 17-38S, longitud: 063-08W, altitud: 373 m

Observación

El informe se hizo hace 38 minutos, a las 03:00 UTC
Viento 2 kt con dirección variable
Temperatura 24°C
Humedad 94%
Presión 1010 hPa
Visibilidad 10 km o más

METAR: SLVR 110300Z VRB02KT 9999 NSC 24/23 Q1010

Hora: 23:38 (03:38 UTC)

Pronóstico

El informe se hizo hace 4 horas y 38 minutos, a las 23:00 UTC
Pronóstico válido del 11 a las 00 UTC al 11 a las 24 UTC
Viento 15 kt del sur
Visibilidad 10 km o más
Nubes dispersas a una altura de 2300 ft
Evolucionando progresivamente
del 11 a las 15 UTC al 11 a las 18 UTC
Nubes dispersas a una altura de 2000 ft
Escasas nubes a una altura de 2700 ft, Cumulus congestus.

TAF: SLVR 102300Z 1100/1124 18015KT 9999 SCT023 TX33/1119Z TN22/1110Z BECMG 1115/1118 SCT020 FEW027TCU

Observaciones y pronósticos meteorológicos de más de 4000 aeropuertos (mensajes METAR y TAF).

Los puntos amarillos y rojos representan las estaciones disponibles.

Ponga el ratón en el punto deseado para ver el nombre de la estación.

Haga clic para ver las observaciones y los pronósticos meteorológicos.

Para cambiar el mapa : haga clic en los botones verdes con una cruz de color negro para hacer un zoom, en el botón verde con un guión para alejar o en las flechas verdes para mapas adyacentes.


METAR-TAF: